Time;durP1;ratioP1;P1;durP2;ratioP2;P2;SDS_P1;SDS_P2;PMS_P1;PMS_P2;Temp;Humidity;BMP_temperature;BMP_pressure;BME280_temperature;BME280_humidity;BME280_pressure;Samples;Min_cycle;Max_cycle;Signal;HPM_P1;HPM_P2
2022/03/23 04:00:55;;;;;;;66.43;29.98;;;6.00;99.90;;;;;;5788367;22;20030;-82
2022/03/23 04:03:21;;;;;;;64.60;32.30;;;6.00;99.90;;;;;;4983555;28;20038;-82
2022/03/23 04:05:47;;;;;;;59.58;29.58;;;6.00;99.90;;;;;;4983128;28;20041;-82
2022/03/23 04:08:12;;;;;;;68.57;30.52;;;6.00;99.90;;;;;;4998870;28;20099;-83
2022/03/23 04:10:38;;;;;;;63.13;30.35;;;6.00;99.90;;;;;;4995991;28;20505;-83
2022/03/23 04:13:07;;;;;;;66.88;30.92;;;5.90;99.90;;;;;;4980196;28;20038;-82
2022/03/23 04:15:34;;;;;;;55.28;27.23;;;5.90;99.90;;;;;;4979762;28;20047;-82
2022/03/23 04:17:59;;;;;;;63.90;29.30;;;5.90;99.90;;;;;;4979984;28;20045;-83
2022/03/23 04:20:25;;;;;;;60.90;30.13;;;5.90;99.90;;;;;;4979869;28;20478;-82
2022/03/23 04:22:51;;;;;;;58.95;30.38;;;5.80;99.90;;;;;;4997257;28;20091;-82
2022/03/23 04:25:17;;;;;;;60.75;31.65;;;5.80;99.90;;;;;;4979190;28;20034;-83
2022/03/23 04:27:50;;;;;;;63.33;30.83;;;5.70;99.90;;;;;;4979943;28;20129;-82
2022/03/23 04:30:19;;;;;;;70.28;32.00;;;5.70;99.90;;;;;;4979548;28;20042;-83
2022/03/23 04:32:46;;;;;;;67.90;31.52;;;5.70;99.90;;;;;;4997149;28;20039;-84
2022/03/23 04:35:12;;;;;;;65.18;30.38;;;5.60;99.90;;;;;;4979157;28;20072;-83
2022/03/23 04:37:38;;;;;;;64.20;31.08;;;5.60;99.90;;;;;;4978823;28;20046;-83
2022/03/23 04:40:05;;;;;;;73.93;32.95;;;5.60;99.90;;;;;;4979476;28;20093;-82
2022/03/23 04:42:31;;;;;;;73.10;33.58;;;5.60;99.90;;;;;;4979012;28;20119;-83
2022/03/23 04:44:56;;;;;;;77.13;32.20;;;5.60;99.90;;;;;;4979642;28;20058;-84
2022/03/23 04:47:22;;;;;;;68.60;32.92;;;5.60;99.90;;;;;;4979916;28;20038;-83
2022/03/23 04:49:48;;;;;;;64.57;31.58;;;5.60;99.90;;;;;;4996907;28;20117;-81
2022/03/23 04:52:14;;;;;;;75.13;32.42;;;5.60;99.90;;;;;;4996323;28;20152;-82
2022/03/23 04:54:40;;;;;;;67.72;30.73;;;5.50;99.90;;;;;;4979334;28;20082;-83
2022/03/23 04:57:05;;;;;;;61.42;30.35;;;5.50;99.90;;;;;;4997115;28;20038;-82
2022/03/23 04:59:31;;;;;;;63.88;32.55;;;5.50;99.90;;;;;;4978681;28;20040;-82
2022/03/23 05:01:56;;;;;;;72.60;32.40;;;5.40;99.90;;;;;;4963074;28;20450;-82
2022/03/23 05:04:22;;;;;;;69.28;33.13;;;5.40;99.90;;;;;;4996355;28;20042;-82
2022/03/23 05:06:47;;;;;;;65.97;31.52;;;5.40;99.90;;;;;;4996773;28;20118;-83
2022/03/23 05:09:13;;;;;;;70.65;35.15;;;5.30;99.90;;;;;;4978840;28;20506;-83
2022/03/23 05:11:38;;;;;;;66.68;32.03;;;5.30;99.90;;;;;;4978919;28;20395;-80
2022/03/23 05:14:04;;;;;;;68.03;31.55;;;5.30;99.90;;;;;;4978869;28;20491;-82
2022/03/23 05:16:29;;;;;;;76.03;33.85;;;5.20;99.90;;;;;;4979056;28;20457;-83
2022/03/23 05:18:55;;;;;;;67.53;32.58;;;5.30;99.90;;;;;;4979308;28;20062;-83
2022/03/23 05:21:21;;;;;;;65.70;31.77;;;5.30;99.90;;;;;;4979008;28;20037;-83
2022/03/23 05:23:46;;;;;;;75.50;34.22;;;5.30;99.90;;;;;;4979670;28;20128;-83
2022/03/23 05:26:13;;;;;;;69.82;32.85;;;5.30;99.90;;;;;;4979028;28;20409;-83
2022/03/23 05:28:39;;;;;;;68.70;32.55;;;5.20;99.90;;;;;;4978809;28;20121;-83
2022/03/23 05:31:04;;;;;;;69.47;32.17;;;5.20;99.90;;;;;;4978943;28;20038;-83
2022/03/23 05:33:30;;;;;;;66.13;31.00;;;5.20;99.90;;;;;;4978888;28;20050;-83
2022/03/23 05:35:56;;;;;;;67.50;32.55;;;5.20;99.90;;;;;;4963474;28;20042;-83
2022/03/23 05:38:21;;;;;;;70.32;33.55;;;5.20;99.90;;;;;;4978142;28;20092;-83
2022/03/23 05:40:47;;;;;;;65.97;31.25;;;5.20;99.90;;;;;;4978271;28;20046;-82
2022/03/23 05:43:12;;;;;;;64.35;31.73;;;5.20;99.90;;;;;;4978696;28;20041;-82
2022/03/23 05:45:38;;;;;;;66.13;31.73;;;5.20;99.90;;;;;;4977768;28;20451;-83
2022/03/23 05:48:04;;;;;;;60.53;28.88;;;5.20;99.90;;;;;;4996141;28;20054;-83
2022/03/23 05:50:30;;;;;;;70.68;32.45;;;5.20;99.90;;;;;;4978308;28;20082;-83
2022/03/23 05:52:55;;;;;;;68.28;33.17;;;5.10;99.90;;;;;;4996150;28;20049;-83
2022/03/23 05:55:21;;;;;;;64.95;32.53;;;5.10;99.90;;;;;;4978493;28;20038;-83
2022/03/23 05:57:46;;;;;;;64.20;30.75;;;5.10;99.90;;;;;;4978942;28;20438;-83
2022/03/23 06:00:12;;;;;;;69.32;32.50;;;5.10;99.90;;;;;;4978016;28;20097;-82
2022/03/23 06:02:39;;;;;;;70.60;33.10;;;5.10;99.90;;;;;;4977531;28;20066;-83
2022/03/23 06:05:06;;;;;;;63.25;32.47;;;5.10;99.90;;;;;;4962216;28;20565;-83
2022/03/23 06:07:31;;;;;;;61.03;30.98;;;5.10;99.90;;;;;;4961453;28;20038;-83
2022/03/23 06:09:58;;;;;;;68.28;32.60;;;5.10;99.90;;;;;;4961936;28;20141;-83
2022/03/23 06:12:24;;;;;;;66.05;31.27;;;5.10;99.90;;;;;;4962133;28;20046;-82
2022/03/23 06:14:50;;;;;;;76.72;33.83;;;5.10;99.90;;;;;;4978100;28;20391;-83
2022/03/23 06:17:16;;;;;;;72.60;34.58;;;5.10;99.90;;;;;;4998536;28;20090;-83
2022/03/23 06:19:42;;;;;;;68.28;32.53;;;5.10;99.90;;;;;;4982953;28;20375;-85
2022/03/23 06:22:08;;;;;;;71.65;33.92;;;5.20;99.90;;;;;;4999711;28;20045;-82
2022/03/23 06:24:34;;;;;;;68.72;31.40;;;5.10;99.90;;;;;;4999970;28;20034;-84
2022/03/23 06:27:00;;;;;;;73.72;35.03;;;5.20;99.90;;;;;;4965695;28;20050;-83
2022/03/23 06:29:26;;;;;;;69.88;30.70;;;5.20;99.90;;;;;;5000004;28;20038;-87
2022/03/23 06:31:52;;;;;;;68.18;30.50;;;5.20;99.90;;;;;;4998932;28;20042;-83
2022/03/23 06:34:18;;;;;;;64.40;31.90;;;5.30;99.90;;;;;;4982118;28;20053;-84
2022/03/23 06:36:43;;;;;;;65.43;32.25;;;5.20;99.90;;;;;;4982112;28;20049;-84
2022/03/23 06:39:09;;;;;;;66.50;32.72;;;5.20;99.90;;;;;;4981687;28;20121;-82
2022/03/23 06:41:34;;;;;;;62.85;30.50;;;5.30;99.90;;;;;;4965099;28;20465;-83
2022/03/23 06:44:00;;;;;;;61.38;29.15;;;5.30;99.90;;;;;;4980683;28;20125;-83
2022/03/23 06:46:26;;;;;;;68.68;32.17;;;5.40;99.90;;;;;;4964148;28;20046;-83
2022/03/23 06:48:52;;;;;;;67.15;31.75;;;5.40;99.90;;;;;;4964109;28;20043;-86
2022/03/23 06:51:18;;;;;;;65.30;31.98;;;5.50;99.90;;;;;;4965972;28;20062;-83
2022/03/23 06:53:44;;;;;;;70.93;33.38;;;5.50;99.90;;;;;;4964707;28;20080;-76
2022/03/23 06:56:12;;;;;;;68.05;32.33;;;5.60;99.90;;;;;;4966109;28;20049;-89
2022/03/23 06:58:38;;;;;;;70.47;32.83;;;5.60;99.90;;;;;;4964887;28;20046;-84
2022/03/23 07:01:04;;;;;;;63.63;31.77;;;5.70;99.90;;;;;;4981631;28;20053;-84
2022/03/23 07:03:30;;;;;;;71.68;34.17;;;5.80;99.90;;;;;;4950339;28;20499;-84
2022/03/23 07:05:56;;;;;;;71.57;34.78;;;5.80;99.90;;;;;;4965342;28;20073;-82
2022/03/23 07:11:06;;;;;;;77.07;37.08;;;6.00;99.90;;;;;;4998933;28;20042;-83
2022/03/23 07:13:32;;;;;;;77.88;38.42;;;6.10;99.90;;;;;;4980954;28;20042;-84
2022/03/23 07:15:57;;;;;;;82.78;40.65;;;6.20;99.90;;;;;;4980676;28;20486;-84
2022/03/23 07:18:23;;;;;;;86.22;43.10;;;6.30;99.90;;;;;;4980483;28;20050;-83
2022/03/23 07:20:49;;;;;;;92.80;42.10;;;6.30;99.90;;;;;;4964380;28;20042;-82
2022/03/23 07:23:15;;;;;;;92.97;43.88;;;6.40;99.90;;;;;;4963913;28;20042;-83
2022/03/23 07:25:41;;;;;;;86.05;43.97;;;6.50;99.90;;;;;;4980726;28;20433;-83
2022/03/23 07:28:07;;;;;;;94.40;43.22;;;6.60;99.90;;;;;;4965222;28;20053;-84
2022/03/23 07:30:37;;;;;;;84.70;43.58;;;6.70;99.90;;;;;;4971096;28;20647;-83
2022/03/23 07:33:03;;;;;;;85.47;44.50;;;6.80;99.90;;;;;;4973689;28;20142;-83
2022/03/23 07:35:29;;;;;;;86.50;42.65;;;6.90;99.90;;;;;;4996930;28;20054;-82
2022/03/23 07:38:06;;;;;;;92.65;42.55;;;7.00;99.90;;;;;;4982173;28;20112;-84
2022/03/23 07:40:32;;;;;;;83.88;41.60;;;7.10;99.90;;;;;;4983455;28;20051;-84
2022/03/23 07:42:59;;;;;;;87.18;42.65;;;7.30;99.90;;;;;;4966464;28;20070;-83
2022/03/23 07:45:25;;;;;;;77.10;40.67;;;7.40;99.90;;;;;;4965357;28;20053;-84
2022/03/23 07:47:51;;;;;;;80.45;41.28;;;7.40;99.90;;;;;;4964861;28;20038;-84
2022/03/23 07:50:17;;;;;;;77.05;40.85;;;7.50;99.90;;;;;;4963874;28;20525;-84
2022/03/23 07:52:42;;;;;;;72.40;38.92;;;7.60;99.90;;;;;;4963377;28;20034;-85
2022/03/23 07:55:09;;;;;;;78.22;40.97;;;7.70;99.90;;;;;;4980273;28;20054;-83
2022/03/23 07:57:34;;;;;;;75.22;39.88;;;7.90;99.90;;;;;;4981506;28;20533;-84
2022/03/23 08:00:00;;;;;;;67.80;37.03;;;8.00;99.90;;;;;;4963827;28;20054;-83
2022/03/23 08:02:26;;;;;;;68.90;38.38;;;8.20;99.90;;;;;;4979306;28;20042;-84
2022/03/23 08:04:53;;;;;;;64.22;36.22;;;8.30;99.90;;;;;;4964260;28;20045;-84
2022/03/23 08:07:18;;;;;;;65.20;35.63;;;8.40;99.90;;;;;;4997720;28;20043;-84
2022/03/23 08:09:45;;;;;;;63.83;34.88;;;8.50;99.90;;;;;;4980497;28;20057;-84
2022/03/23 08:12:11;;;;;;;64.07;34.35;;;8.60;99.90;;;;;;4964469;28;20112;-84
2022/03/23 08:14:40;;;;;;;62.90;34.20;;;8.80;99.90;;;;;;4963316;28;20046;-83
2022/03/23 08:17:06;;;;;;;56.45;32.58;;;8.90;99.90;;;;;;4964411;28;20068;-83
2022/03/23 08:19:32;;;;;;;55.65;31.23;;;9.10;99.90;;;;;;4963856;28;20119;-84
2022/03/23 08:21:57;;;;;;;54.03;27.45;;;9.30;99.90;;;;;;4963685;28;20043;-84
2022/03/23 08:24:23;;;;;;;51.83;28.42;;;9.40;99.90;;;;;;4980759;28;20051;-84
2022/03/23 08:26:49;;;;;;;57.25;29.83;;;9.60;99.90;;;;;;4964108;28;20039;-85
2022/03/23 08:29:14;;;;;;;54.92;27.33;;;9.80;99.90;;;;;;4980237;28;20459;-83
2022/03/23 08:31:40;;;;;;;52.22;29.17;;;9.90;99.90;;;;;;4963347;28;20101;-83
2022/03/23 08:34:06;;;;;;;48.72;27.88;;;10.00;99.90;;;;;;4980025;28;20049;-83
2022/03/23 08:36:32;;;;;;;48.00;27.52;;;10.20;99.90;;;;;;4963725;28;20489;-84
2022/03/23 08:38:58;;;;;;;51.33;28.40;;;10.30;99.90;;;;;;4979199;28;20097;-83
2022/03/23 08:41:24;;;;;;;49.42;27.75;;;10.50;99.90;;;;;;4978275;28;20062;-85
2022/03/23 08:43:49;;;;;;;48.88;28.75;;;10.60;99.90;;;;;;4996803;28;20041;-85
2022/03/23 08:46:15;;;;;;;52.13;28.48;;;10.80;99.90;;;;;;4979590;28;20073;-82
2022/03/23 08:48:41;;;;;;;48.75;27.50;;;10.90;99.90;;;;;;4980467;28;20049;-84
2022/03/23 08:51:07;;;;;;;45.47;24.83;;;11.10;99.90;;;;;;4979567;28;20064;-82
2022/03/23 08:53:33;;;;;;;43.10;24.83;;;11.30;99.90;;;;;;4963021;28;20042;-84
2022/03/23 08:55:59;;;;;;;42.67;25.40;;;11.50;99.90;;;;;;4979066;28;20026;-82
2022/03/23 08:58:28;;;;;;;43.75;25.95;;;11.80;99.90;;;;;;4963327;28;20042;-84
2022/03/23 09:03:29;;;;;;;;;;;12.20;99.90;;;;;;5032313;23;20054;-85
2022/03/23 09:05:55;;;;;;;;;;;12.40;99.90;;;;;;4998514;28;20415;-81
2022/03/23 09:08:21;;;;;;;42.80;24.42;;;12.60;99.90;;;;;;4981559;28;19917;-84
2022/03/23 09:10:46;;;;;;;39.63;24.15;;;12.70;99.90;;;;;;4977292;28;20204;-83
2022/03/23 09:13:14;;;;;;;40.42;23.42;;;13.00;99.90;;;;;;4963383;28;20050;-83
2022/03/23 09:15:40;;;;;;;37.00;22.33;;;13.20;99.90;;;;;;4963293;28;20110;-84
2022/03/23 09:18:07;;;;;;;32.72;21.02;;;13.50;99.90;;;;;;4962724;28;20045;-85
2022/03/23 09:21:03;;;;;;;36.60;22.95;;;13.80;99.90;;;;;;4979476;28;20097;-84
2022/03/23 09:23:38;;;;;;;38.95;22.75;;;14.00;99.90;;;;;;4963416;28;20042;-79
2022/03/23 09:26:04;;;;;;;40.35;22.92;;;14.30;99.90;;;;;;4995231;28;20096;-77
2022/03/23 09:28:40;;;;;;;37.80;22.25;;;14.50;99.90;;;;;;4977916;28;20372;-82
2022/03/23 09:31:06;;;;;;;36.85;21.95;;;14.80;99.90;;;;;;4976877;28;20042;-82
2022/03/23 09:33:33;;;;;;;37.03;21.65;;;14.90;99.90;;;;;;4962145;28;20065;-83
2022/03/23 09:35:58;;;;;;;31.35;20.60;;;15.10;99.90;;;;;;4995786;28;20038;-86
2022/03/23 09:38:26;;;;;;;31.83;19.70;;;15.40;99.90;;;;;;4962750;28;20050;-81
2022/03/23 09:40:52;;;;;;;31.48;19.45;;;15.50;99.90;;;;;;4978871;28;20038;-85
2022/03/23 09:43:23;;;;;;;28.00;18.58;;;15.70;99.60;;;;;;4977383;28;20086;-79
2022/03/23 09:45:50;;;;;;;29.10;18.83;;;15.90;97.30;;;;;;4977345;28;20050;-78
2022/03/23 09:48:20;;;;;;;30.40;19.45;;;16.10;95.80;;;;;;4977443;28;20138;-78
2022/03/23 09:50:48;;;;;;;26.45;17.70;;;16.30;94.90;;;;;;4976803;28;20046;-79
2022/03/23 09:53:14;;;;;;;27.85;18.17;;;16.50;93.60;;;;;;4981533;28;20050;-79
2022/03/23 09:55:42;;;;;;;27.83;18.33;;;16.60;90.30;;;;;;4981126;28;20121;-80
2022/03/23 09:58:09;;;;;;;27.90;17.55;;;16.80;89.00;;;;;;4965123;28;20042;-80
2022/03/23 10:00:40;;;;;;;25.50;17.00;;;16.90;86.00;;;;;;4965418;28;20043;-80
2022/03/23 10:03:11;;;;;;;26.25;16.73;;;17.00;82.70;;;;;;4981635;28;20048;-79
2022/03/23 10:06:14;;;;;;;25.38;16.60;;;17.20;75.60;;;;;;4981226;28;20050;-77
2022/03/23 10:09:16;;;;;;;24.52;16.00;;;17.30;69.60;;;;;;4998149;28;20399;-78
2022/03/23 10:12:06;;;;;;;26.33;15.75;;;17.50;67.30;;;;;;4980920;28;20038;-81
2022/03/23 10:14:54;;;;;;;27.10;15.52;;;17.60;66.10;;;;;;4980961;28;20054;-79
2022/03/23 10:17:39;;;;;;;24.83;15.73;;;17.70;64.00;;;;;;4980510;28;20045;-78
2022/03/23 10:20:04;;;;;;;29.15;16.58;;;17.80;64.80;;;;;;4980870;28;20384;-82
2022/03/23 10:22:30;;;;;;;31.75;16.55;;;17.90;63.10;;;;;;4989283;23;20050;-83
2022/03/23 10:25:15;;;;;;;26.00;16.42;;;17.90;62.30;;;;;;4984382;28;20077;-84
2022/03/23 10:27:43;;;;;;;25.48;16.60;;;18.00;60.20;;;;;;4984421;28;20052;-83
2022/03/23 10:30:37;;;;;;;28.80;16.40;;;18.10;61.10;;;;;;4983965;28;20049;-84
2022/03/23 10:33:22;;;;;;;29.35;16.50;;;18.20;59.50;;;;;;4964432;28;20081;-85
2022/03/23 10:37:08;;;;;;;;;;;;;;;;;;;;;
2022/03/23 10:39:56;;;;;;;25.00;13.27;;;18.40;55.80;;;;;;4921277;29;20542;-83
2022/03/23 10:42:40;;;;;;;26.38;15.88;;;18.60;57.90;;;;;;4981053;28;20053;-84
2022/03/23 10:45:18;;;;;;;25.52;14.93;;;18.70;55.90;;;;;;4981047;28;20050;-84
2022/03/23 10:48:58;;;;;;;;;;;;;;;;;;;;;
2022/03/23 10:51:56;;;;;;;;;;;;;;;;;;;;;
2022/03/23 10:54:26;;;;;;;23.52;13.38;;;18.90;53.50;;;;;;4977704;28;20446;-83
2022/03/23 10:56:58;;;;;;;23.08;12.27;;;19.00;52.60;;;;;;4981322;28;20036;-83
2022/03/23 10:59:26;;;;;;;27.67;13.43;;;19.10;51.70;;;;;;4978529;28;20065;-83
2022/03/23 11:02:03;;;;;;;23.38;12.02;;;19.20;50.60;;;;;;4963787;28;20053;-82
2022/03/23 11:04:56;;;;;;;22.55;10.30;;;19.20;49.60;;;;;;4962789;28;20046;-82
2022/03/23 11:07:35;;;;;;;29.27;12.50;;;19.40;49.20;;;;;;4980544;28;20117;-84
2022/03/23 11:15:46;;;;;;;21.27;11.13;;;19.70;47.20;;;;;;4980017;28;20461;-83
2022/03/23 11:18:13;;;;;;;22.48;11.02;;;19.70;47.80;;;;;;4979667;28;20395;-84
2022/03/23 11:20:39;;;;;;;26.02;11.18;;;19.80;47.60;;;;;;4979294;28;20055;-83
2022/03/23 11:23:18;;;;;;;30.50;12.00;;;19.90;47.00;;;;;;4979534;28;20054;-83
2022/03/23 11:26:11;;;;;;;26.35;12.20;;;20.10;45.90;;;;;;4980026;28;20093;-83
2022/03/23 11:28:45;;;;;;;24.08;11.05;;;20.10;46.00;;;;;;4977754;28;20054;-82
2022/03/23 11:31:13;;;;;;;22.20;12.20;;;20.20;45.60;;;;;;4964373;28;20359;-83
2022/03/23 11:33:41;;;;;;;23.15;10.00;;;20.40;46.10;;;;;;4964045;28;20096;-84
2022/03/23 11:36:11;;;;;;;24.98;11.35;;;20.40;45.80;;;;;;4963947;28;20057;-82
2022/03/23 11:38:37;;;;;;;25.52;11.05;;;20.50;45.30;;;;;;4963677;28;20052;-82
2022/03/23 11:41:04;;;;;;;26.80;11.52;;;20.60;44.90;;;;;;4979721;28;20039;-83
2022/03/23 11:43:34;;;;;;;23.08;11.95;;;20.70;45.60;;;;;;4964620;28;20038;-83
2022/03/23 11:46:01;;;;;;;22.98;11.35;;;20.70;45.60;;;;;;4964424;28;20042;-83
2022/03/23 11:48:54;;;;;;;;;;;;;;;;;;;;;
2022/03/23 11:51:50;;;;;;;23.45;11.30;;;21.00;44.80;;;;;;4978348;28;20120;-83
2022/03/23 11:54:26;;;;;;;23.10;11.60;;;21.10;45.30;;;;;;4963569;28;20054;-82
2022/03/23 11:56:57;;;;;;;25.35;11.40;;;21.10;44.60;;;;;;4980004;28;20042;-83
2022/03/23 11:59:30;;;;;;;20.48;11.18;;;21.20;44.50;;;;;;4979697;28;20065;-82
2022/03/23 12:01:59;;;;;;;25.35;11.43;;;21.30;43.50;;;;;;4996819;28;20038;-82
2022/03/23 12:04:26;;;;;;;20.73;11.32;;;21.40;44.10;;;;;;4979164;28;20124;-82
2022/03/23 12:07:06;;;;;;;23.60;10.00;;;21.50;43.60;;;;;;4963536;28;20072;-81
2022/03/23 12:09:39;;;;;;;23.48;8.70;;;21.60;43.90;;;;;;4979720;28;20070;-81
2022/03/23 12:12:28;;;;;;;21.48;9.20;;;21.70;44.50;;;;;;4979243;28;20410;-81
2022/03/23 12:15:16;;;;;;;18.83;9.20;;;21.70;43.10;;;;;;4996232;28;20038;-82
2022/03/23 12:18:03;;;;;;;18.95;9.07;;;21.60;42.80;;;;;;4978691;28;20042;-81
2022/03/23 12:20:33;;;;;;;24.27;9.82;;;21.80;43.80;;;;;;4978957;28;20042;-82
2022/03/23 12:23:14;;;;;;;21.17;8.70;;;21.80;42.70;;;;;;4962736;28;20497;-84
2022/03/23 12:26:04;;;;;;;20.80;8.65;;;22.00;42.10;;;;;;4979366;28;20046;-82
2022/03/23 12:28:40;;;;;;;25.63;10.20;;;22.10;41.50;;;;;;4996391;28;20039;-82
2022/03/23 12:31:10;;;;;;;23.75;10.40;;;22.30;43.10;;;;;;4962147;28;20050;-79
2022/03/23 12:34:06;;;;;;;24.85;8.95;;;22.40;42.60;;;;;;4963380;28;20092;-83
2022/03/23 12:36:57;;;;;;;20.25;9.43;;;22.40;42.10;;;;;;4979130;28;20051;-84
2022/03/23 12:39:46;;;;;;;21.95;9.18;;;22.40;41.40;;;;;;4997114;28;20049;-86
2022/03/23 12:42:12;;;;;;;22.77;8.80;;;22.40;42.10;;;;;;4996928;28;20057;-85
2022/03/23 12:44:40;;;;;;;26.30;9.18;;;22.50;41.40;;;;;;4996527;28;20038;-86
2022/03/23 12:47:14;;;;;;;26.90;8.70;;;22.80;41.00;;;;;;4978538;28;20057;-83
2022/03/23 12:58:17;;;;;;;18.55;9.25;;;23.10;40.20;;;;;;5002190;28;20047;-84
2022/03/23 13:00:51;;;;;;;21.88;8.52;;;23.20;39.70;;;;;;4986844;28;20045;-82
2022/03/23 13:03:19;;;;;;;18.80;8.65;;;23.30;39.00;;;;;;5002971;28;20138;-81
2022/03/23 13:06:00;;;;;;;20.70;9.25;;;23.20;39.40;;;;;;4999171;28;20049;-85
2022/03/23 13:08:38;;;;;;;20.48;8.98;;;23.20;39.20;;;;;;4982645;28;20046;-84
2022/03/23 13:11:07;;;;;;;19.38;8.55;;;23.30;38.30;;;;;;5001722;28;20038;-83
2022/03/23 13:13:37;;;;;;;22.38;9.05;;;23.50;37.50;;;;;;4968446;28;20482;-85
2022/03/23 13:16:10;;;;;;;21.77;7.72;;;23.90;37.90;;;;;;4983420;28;20077;-85
2022/03/23 13:18:42;;;;;;;20.38;7.55;;;24.30;36.70;;;;;;4962636;28;20121;-83
2022/03/23 13:21:19;;;;;;;21.88;7.72;;;24.40;38.20;;;;;;4962465;28;20042;-83
2022/03/23 13:23:50;;;;;;;20.13;7.88;;;24.70;37.10;;;;;;4995001;28;20061;-84
2022/03/23 13:26:21;;;;;;;19.90;6.72;;;24.90;36.90;;;;;;4977537;28;20066;-85
2022/03/23 13:28:55;;;;;;;16.65;7.05;;;24.70;37.20;;;;;;4962364;28;20038;-84
2022/03/23 13:31:34;;;;;;;15.60;6.60;;;24.50;37.00;;;;;;4978286;28;20501;-85
2022/03/23 13:34:04;;;;;;;20.80;7.40;;;24.20;37.00;;;;;;4961320;28;20042;-85
2022/03/23 13:36:33;;;;;;;24.35;7.60;;;24.00;37.20;;;;;;4978915;28;20478;-82
2022/03/23 13:38:59;;;;;;;20.23;6.55;;;24.10;37.50;;;;;;4995513;28;20045;-82
2022/03/23 13:44:14;;;;;;;17.88;6.32;;;24.20;36.60;;;;;;4976973;28;20462;-81
2022/03/23 13:46:40;;;;;;;15.48;5.95;;;24.20;37.20;;;;;;4994972;28;20100;-81
2022/03/23 13:49:14;;;;;;;16.73;6.82;;;24.30;37.20;;;;;;4977536;28;20133;-82
2022/03/23 13:51:45;;;;;;;18.42;6.45;;;24.30;37.10;;;;;;4961336;28;20053;-82
2022/03/23 13:54:17;;;;;;;16.85;5.72;;;24.30;37.40;;;;;;4977407;28;20057;-82
2022/03/23 13:56:45;;;;;;;16.52;7.07;;;24.40;37.10;;;;;;4977436;28;20038;-82
2022/03/23 13:59:16;;;;;;;24.48;6.38;;;24.50;37.20;;;;;;4961883;28;20132;-83
2022/03/23 14:01:45;;;;;;;19.38;6.95;;;24.30;37.40;;;;;;4995812;28;20047;-82
2022/03/23 14:04:12;;;;;;;22.02;7.93;;;24.40;36.60;;;;;;4962133;28;20046;-82
2022/03/23 14:06:49;;;;;;;17.52;7.22;;;24.30;36.40;;;;;;4977916;28;20100;-83
2022/03/23 14:09:19;;;;;;;16.33;6.93;;;24.30;36.00;;;;;;4995568;28;20482;-82
2022/03/23 14:14:31;;;;;;;17.88;7.07;;;24.10;36.30;;;;;;4977171;28;20053;-84
2022/03/23 14:17:04;;;;;;;20.42;7.60;;;24.10;36.00;;;;;;4977789;28;20077;-82
2022/03/23 14:19:41;;;;;;;24.98;8.13;;;23.90;36.10;;;;;;4977599;28;20046;-82
2022/03/23 14:22:09;;;;;;;18.55;7.85;;;23.80;37.40;;;;;;4995114;28;20093;-83
2022/03/23 14:24:37;;;;;;;17.35;7.25;;;23.70;35.90;;;;;;4995364;28;20057;-83
2022/03/23 14:27:14;;;;;;;22.10;8.18;;;23.50;36.20;;;;;;4995435;28;20089;-84
2022/03/23 14:29:42;;;;;;;20.05;7.15;;;23.50;37.20;;;;;;4962177;28;20065;-82
2022/03/23 14:32:11;;;;;;;19.70;7.78;;;23.60;37.20;;;;;;4995811;28;20049;-83
2022/03/23 14:34:38;;;;;;;18.88;6.93;;;23.80;36.70;;;;;;4961542;28;20045;-82
2022/03/23 14:37:09;;;;;;;23.55;7.50;;;24.00;37.20;;;;;;4979139;28;20065;-83
2022/03/23 14:39:40;;;;;;;18.85;6.60;;;24.00;37.30;;;;;;4982490;28;20078;-82
2022/03/23 14:42:08;;;;;;;23.23;6.65;;;24.10;37.00;;;;;;4998702;28;20505;-82
2022/03/23 14:44:35;;;;;;;20.48;6.95;;;24.10;36.70;;;;;;4980601;28;20406;-83
2022/03/23 14:47:09;;;;;;;19.10;6.47;;;24.10;36.60;;;;;;4998772;28;20103;-83
2022/03/23 14:49:45;;;;;;;22.80;6.03;;;24.10;36.80;;;;;;4981153;28;20042;-83
2022/03/23 14:52:13;;;;;;;20.35;7.70;;;24.00;36.60;;;;;;4998423;28;20073;-82
2022/03/23 14:54:41;;;;;;;18.65;6.85;;;24.00;36.70;;;;;;4998882;28;20042;-83
2022/03/23 14:57:11;;;;;;;22.73;6.75;;;24.10;36.40;;;;;;4999038;28;20050;-83
2022/03/23 14:59:44;;;;;;;24.42;6.97;;;24.10;36.80;;;;;;4998908;28;20134;-83
2022/03/23 15:02:15;;;;;;;20.05;6.53;;;24.00;36.20;;;;;;4998509;28;20414;-83
2022/03/23 15:04:47;;;;;;;21.75;6.20;;;23.80;36.40;;;;;;4998741;28;20057;-83
2022/03/23 15:15:27;;;;;;;24.55;5.70;;;23.70;37.00;;;;;;4998269;28;20054;-82
2022/03/23 15:17:54;;;;;;;27.85;6.25;;;23.70;37.00;;;;;;4980314;28;20038;-83
2022/03/23 15:20:21;;;;;;;17.77;5.97;;;23.70;36.30;;;;;;4997570;28;20054;-83
2022/03/23 15:22:47;;;;;;;22.80;5.85;;;23.60;36.60;;;;;;4980088;28;20042;-84
2022/03/23 15:25:13;;;;;;;19.42;6.32;;;23.70;36.40;;;;;;4997425;28;20406;-83
2022/03/23 15:27:39;;;;;;;19.35;5.45;;;23.50;36.40;;;;;;4997719;28;20045;-83
2022/03/23 15:30:06;;;;;;;15.13;6.88;;;23.40;37.10;;;;;;4998449;28;20039;-83
2022/03/23 15:32:32;;;;;;;18.38;5.85;;;23.40;37.00;;;;;;4998602;28;20070;-81
2022/03/23 15:34:57;;;;;;;26.63;6.30;;;23.40;37.00;;;;;;4998210;28;20505;-82
2022/03/23 15:37:23;;;;;;;17.40;5.82;;;23.50;37.10;;;;;;4998100;28;20043;-82
2022/03/23 15:39:51;;;;;;;14.80;6.13;;;23.40;37.30;;;;;;4963416;28;20039;-80
2022/03/23 15:45:04;;;;;;;12.20;5.90;;;23.50;37.00;;;;;;4967032;28;20225;-83
2022/03/23 15:47:30;;;;;;;19.17;6.22;;;23.60;37.00;;;;;;4997107;28;20042;-83
2022/03/23 15:49:56;;;;;;;19.45;5.80;;;23.60;36.80;;;;;;4996569;28;20453;-83
2022/03/23 15:52:22;;;;;;;21.30;6.20;;;23.60;36.80;;;;;;4980387;28;20038;-82
2022/03/23 15:54:47;;;;;;;22.40;6.43;;;23.50;37.00;;;;;;4997931;28;20050;-83
2022/03/23 15:57:13;;;;;;;20.92;6.05;;;23.60;37.20;;;;;;4997532;28;20372;-82
2022/03/23 15:59:38;;;;;;;18.00;5.75;;;23.60;37.20;;;;;;4997419;28;20045;-81
2022/03/23 16:02:04;;;;;;;22.17;6.28;;;23.50;36.90;;;;;;4979327;28;20112;-82
2022/03/23 16:04:30;;;;;;;18.45;5.80;;;23.70;37.20;;;;;;4997263;28;20069;-82
2022/03/23 16:06:57;;;;;;;25.88;6.60;;;23.80;37.10;;;;;;4979815;28;20413;-82
2022/03/23 16:09:22;;;;;;;27.75;6.75;;;23.80;37.80;;;;;;4979601;28;20096;-81
2022/03/23 16:11:50;;;;;;;24.90;7.18;;;23.90;37.40;;;;;;4979344;28;20038;-82
2022/03/23 16:14:16;;;;;;;20.17;5.75;;;24.10;36.90;;;;;;4979286;28;20042;-84
2022/03/23 16:16:43;;;;;;;27.20;6.93;;;24.10;36.80;;;;;;4979388;28;20050;-83
2022/03/23 16:19:09;;;;;;;27.35;6.00;;;24.10;37.00;;;;;;4979459;28;20078;-83
2022/03/23 16:21:35;;;;;;;16.25;5.95;;;24.00;37.30;;;;;;4997214;28;20502;-84
2022/03/23 16:24:01;;;;;;;17.27;6.43;;;23.90;37.70;;;;;;4997502;28;20042;-84
2022/03/23 16:26:26;;;;;;;17.27;5.90;;;23.90;37.40;;;;;;4997120;28;20505;-83
2022/03/23 16:28:54;;;;;;;25.25;7.03;;;23.80;37.70;;;;;;4997223;28;20112;-84
2022/03/23 16:31:21;;;;;;;25.92;8.20;;;23.80;37.80;;;;;;4980360;28;20042;-82
2022/03/23 16:33:47;;;;;;;22.45;7.15;;;23.70;38.10;;;;;;4979144;28;20128;-84
2022/03/23 16:36:16;;;;;;;24.13;6.63;;;23.50;38.10;;;;;;4996244;28;20152;-83
2022/03/23 16:38:42;;;;;;;17.75;6.68;;;23.20;39.20;;;;;;4996590;28;20045;-83
2022/03/23 16:43:51;;;;;;;17.65;6.90;;;22.50;39.70;;;;;;4979263;28;20050;-82
2022/03/23 16:46:17;;;;;;;24.73;7.47;;;22.10;40.30;;;;;;4979850;28;20038;-83
2022/03/23 16:48:44;;;;;;;22.70;7.63;;;21.80;40.70;;;;;;4997272;28;20042;-84
2022/03/23 16:51:09;;;;;;;19.85;7.40;;;21.50;41.50;;;;;;4996992;28;20046;-83
2022/03/23 16:53:35;;;;;;;20.58;7.30;;;21.30;41.40;;;;;;4997042;28;20070;-82
2022/03/23 16:56:03;;;;;;;21.05;7.60;;;21.00;42.00;;;;;;4979020;28;20124;-84
2022/03/23 16:58:28;;;;;;;18.55;6.60;;;20.80;42.20;;;;;;4997026;28;20080;-83
2022/03/23 17:00:54;;;;;;;22.98;7.53;;;20.60;42.60;;;;;;4996514;28;20038;-84
2022/03/23 17:14:16;;;;;;;29.33;6.95;;;19.70;44.50;;;;;;4978749;28;20085;-82
2022/03/23 17:16:42;;;;;;;20.25;6.22;;;19.60;44.80;;;;;;4980066;28;20077;-83
2022/03/23 17:19:08;;;;;;;23.45;6.22;;;19.50;45.10;;;;;;4996690;28;20089;-82
2022/03/23 17:21:34;;;;;;;17.67;5.35;;;19.40;45.20;;;;;;4995959;28;20038;-83
2022/03/23 17:24:00;;;;;;;18.42;6.40;;;19.20;45.50;;;;;;4996406;28;20046;-83
2022/03/23 17:26:26;;;;;;;17.15;6.00;;;19.00;45.70;;;;;;4979068;28;20415;-81
2022/03/23 17:28:52;;;;;;;24.10;6.00;;;18.90;46.10;;;;;;4978253;28;20050;-82
2022/03/23 17:31:18;;;;;;;22.58;6.03;;;18.80;46.50;;;;;;4995789;28;20042;-83
2022/03/23 17:33:44;;;;;;;18.25;5.95;;;18.60;46.80;;;;;;4996070;28;20053;-83
2022/03/23 17:36:10;;;;;;;20.77;6.05;;;18.60;46.80;;;;;;4979403;28;20113;-83
2022/03/23 17:38:35;;;;;;;20.17;6.38;;;18.40;47.30;;;;;;4996264;28;20113;-82
2022/03/23 17:41:01;;;;;;;23.02;6.47;;;18.30;47.10;;;;;;4978753;28;20426;-83
2022/03/23 17:43:27;;;;;;;18.40;6.90;;;18.20;47.30;;;;;;4978625;28;20038;-82